Time;durP1;ratioP1;P1;durP2;ratioP2;P2;SDS_P1;SDS_P2;PMS_P1;PMS_P2;Temp;Humidity;BMP_temperature;BMP_pressure;BME280_temperature;BME280_humidity;BME280_pressure;Samples;Min_cycle;Max_cycle;Signal;HPM_P1;HPM_P2
2021/03/26 00:02:28;;;;;;;11.40;6.68;;;;;;;7.78;46.88;101590.00;7927908;28;20401;-65
2021/03/26 00:06:22;;;;;;;13.40;6.90;;;;;;;7.74;47.08;101587.56;7927341;28;20401;-65
2021/03/26 00:10:14;;;;;;;10.63;5.85;;;;;;;7.65;47.26;101567.91;7931229;28;20026;-65
2021/03/26 00:14:05;;;;;;;10.70;6.13;;;;;;;7.69;47.53;101581.69;7928535;28;20061;-64
2021/03/26 00:17:55;;;;;;;11.07;5.85;;;;;;;7.66;47.72;101576.59;7926608;28;20446;-64
2021/03/26 00:21:46;;;;;;;10.82;5.82;;;;;;;7.63;47.47;101572.31;7926044;28;20421;-64
2021/03/26 00:25:37;;;;;;;10.82;5.80;;;;;;;7.61;47.60;101571.56;7928444;28;20034;-64
2021/03/26 00:29:27;;;;;;;13.88;5.78;;;;;;;7.59;47.38;101573.38;7927712;28;20034;-64
2021/03/26 00:33:18;;;;;;;13.43;5.95;;;;;;;7.56;47.93;101572.66;7927160;28;20052;-64
2021/03/26 00:37:09;;;;;;;11.07;6.45;;;;;;;7.53;47.57;101568.41;7928639;28;20018;-64
2021/03/26 00:41:00;;;;;;;13.45;7.15;;;;;;;7.49;47.60;101570.31;7927057;28;20418;-63
2021/03/26 00:44:51;;;;;;;13.05;7.43;;;;;;;7.45;47.40;101562.66;7926639;28;20060;-64
2021/03/26 00:48:42;;;;;;;11.88;6.88;;;;;;;7.41;47.96;101559.34;7930647;28;20379;-64
2021/03/26 00:52:33;;;;;;;15.27;7.30;;;;;;;7.40;47.84;101557.63;7915991;28;20026;-63
2021/03/26 00:56:24;;;;;;;13.05;6.60;;;;;;;7.37;47.70;101554.28;7933213;28;20036;-66
2021/03/26 01:00:20;;;;;;;13.68;6.00;;;;;;;7.33;48.20;101550.97;7928712;28;20490;-66
2021/03/26 01:04:11;;;;;;;11.68;7.15;;;;;;;7.30;47.90;101548.47;7946126;28;20034;-66
2021/03/26 01:08:03;;;;;;;13.63;6.85;;;;;;;7.27;47.89;101543.38;7926327;28;20030;-66
2021/03/26 01:11:55;;;;;;;17.15;6.53;;;;;;;7.23;48.07;101543.56;7936199;28;20034;-67
2021/03/26 01:15:47;;;;;;;11.60;6.15;;;;;;;7.20;47.81;101536.72;7936637;28;20040;-66
2021/03/26 01:19:42;;;;;;;10.80;6.85;;;;;;;7.16;47.78;101536.88;7947629;28;20069;-66
2021/03/26 01:23:33;;;;;;;16.48;7.47;;;;;;;7.12;48.06;101536.16;7934726;28;20026;-66
2021/03/26 01:27:24;;;;;;;11.43;7.43;;;;;;;7.09;47.92;101536.31;7938142;28;20030;-67
2021/03/26 01:31:16;;;;;;;13.10;6.55;;;;;;;7.07;47.92;101532.03;7926168;28;20040;-66
2021/03/26 01:35:09;;;;;;;12.75;7.68;;;;;;;7.03;47.81;101533.94;7914261;28;20449;-66
2021/03/26 01:39:00;;;;;;;10.50;7.00;;;;;;;6.99;47.84;101527.13;7931055;28;20068;-65
2021/03/26 01:43:01;;;;;;;13.85;7.65;;;;;;;6.94;47.83;101526.47;7939014;28;20033;-66
2021/03/26 01:46:53;;;;;;;11.50;7.97;;;;;;;6.89;47.99;101517.94;7938353;28;20049;-66
2021/03/26 01:50:46;;;;;;;11.38;6.82;;;;;;;6.84;47.65;101512.09;7933916;28;20290;-65
2021/03/26 01:54:37;;;;;;;12.75;7.30;;;;;;;6.80;47.95;101511.34;7936366;28;20024;-65
2021/03/26 01:58:36;;;;;;;11.18;8.20;;;;;;;6.75;48.06;101507.22;7939050;28;20041;-66
2021/03/26 02:02:28;;;;;;;12.65;7.78;;;;;;;6.71;47.66;101505.63;7932536;28;20116;-65
2021/03/26 02:06:46;;;;;;;16.35;7.38;;;;;;;6.66;48.08;101499.72;7930180;28;20034;-66
2021/03/26 02:10:37;;;;;;;11.98;7.78;;;;;;;6.62;48.13;101495.53;7930491;28;20097;-65
2021/03/26 02:14:35;;;;;;;12.00;7.50;;;;;;;6.58;48.13;101500.03;7930967;28;20034;-66
2021/03/26 02:18:29;;;;;;;14.38;8.30;;;;;;;6.54;48.27;101493.25;7925156;28;20038;-65
2021/03/26 02:22:23;;;;;;;11.60;8.38;;;;;;;6.53;47.99;101483.69;7936537;28;20104;-64
2021/03/26 02:26:21;;;;;;;12.23;7.63;;;;;;;6.49;48.21;101477.75;7932577;28;20079;-66
2021/03/26 02:30:30;;;;;;;13.35;8.25;;;;;;;6.47;48.28;101484.78;7930881;28;20038;-66
2021/03/26 02:34:23;;;;;;;19.15;9.00;;;;;;;6.45;48.27;101472.72;7933506;28;20038;-65
2021/03/26 02:38:25;;;;;;;17.25;8.82;;;;;;;6.43;48.36;101492.78;7929891;28;20088;-65
2021/03/26 02:42:32;;;;;;;13.25;7.85;;;;;;;6.36;48.37;101471.31;7928808;28;20042;-65
2021/03/26 02:46:32;;;;;;;14.95;7.88;;;;;;;6.36;48.31;101468.69;7940988;28;20038;-65
2021/03/26 02:50:41;;;;;;;15.18;8.25;;;;;;;6.32;48.27;101477.56;7934989;28;20038;-66
2021/03/26 02:54:43;;;;;;;;;;;;;;;6.22;48.30;101477.97;7937616;28;20037;-66
2021/03/26 02:58:43;;;;;;;13.43;8.07;;;;;;;6.22;48.41;101475.38;7929723;28;19917;-65
2021/03/26 03:02:36;;;;;;;15.25;8.35;;;;;;;6.19;48.15;101473.72;7935938;28;20034;-64
2021/03/26 03:06:39;;;;;;;12.85;8.38;;;;;;;6.16;48.49;101468.63;7930325;28;20023;-65
2021/03/26 03:11:07;;;;;;;12.75;8.27;;;;;;;6.10;48.40;101467.09;7935402;28;20046;-66
2021/03/26 03:15:09;;;;;;;17.80;8.48;;;;;;;6.10;48.65;101471.44;7934555;28;20106;-66
2021/03/26 03:19:10;;;;;;;14.02;9.35;;;;;;;6.07;48.73;101455.91;7928165;28;20497;-66
2021/03/26 03:23:04;;;;;;;13.50;8.60;;;;;;;6.05;48.64;101466.44;7927645;28;20037;-66
2021/03/26 03:27:32;;;;;;;16.13;9.55;;;;;;;6.00;48.48;101454.47;7946760;28;20041;-66
2021/03/26 03:31:45;;;;;;;14.25;8.38;;;;;;;5.98;48.55;101457.13;7914520;28;20037;-66
2021/03/26 03:35:45;;;;;;;14.52;9.13;;;;;;;5.95;48.62;101459.00;7928608;28;20671;-65
2021/03/26 03:40:08;;;;;;;20.42;10.27;;;;;;;5.88;48.70;101450.56;7929426;28;20514;-66
2021/03/26 03:44:13;;;;;;;17.83;8.93;;;;;;;5.88;48.71;101452.31;7924234;28;20038;-65
2021/03/26 03:48:32;;;;;;;16.10;9.65;;;;;;;5.85;48.96;101457.66;7935154;28;20050;-65
2021/03/26 03:52:47;;;;;;;14.68;8.90;;;;;;;5.83;48.99;101454.25;7927979;28;20057;-66
2021/03/26 03:57:11;;;;;;;20.48;11.07;;;;;;;5.83;49.01;101449.03;7926504;28;20617;-66
2021/03/26 04:01:20;;;;;;;15.98;9.40;;;;;;;5.79;49.16;101444.84;7940831;28;20526;-66
2021/03/26 04:05:19;;;;;;;16.20;9.57;;;;;;;5.77;49.08;101438.81;7936497;28;20039;-66
2021/03/26 04:09:14;;;;;;;14.90;9.63;;;;;;;5.79;49.44;101435.25;7920067;28;20037;-65
2021/03/26 04:13:20;;;;;;;17.23;10.38;;;;;;;5.80;49.51;101442.19;7933823;28;20038;-66
2021/03/26 04:17:38;;;;;;;15.63;8.43;;;;;;;5.75;49.50;101436.28;7926870;28;20092;-65
2021/03/26 04:21:51;;;;;;;16.67;8.98;;;;;;;5.77;49.25;101438.81;7926010;28;20027;-66
2021/03/26 04:26:15;;;;;;;15.77;9.90;;;;;;;5.74;49.36;101431.97;7927445;28;20042;-65
2021/03/26 04:30:29;;;;;;;13.60;8.13;;;;;;;5.69;49.42;101436.50;7927928;28;20034;-64
2021/03/26 04:34:28;;;;;;;16.25;8.65;;;;;;;5.65;49.33;101427.09;7938542;28;20104;-64
2021/03/26 04:38:44;;;;;;;14.25;8.93;;;;;;;5.62;49.30;101428.06;7927346;28;20041;-64
2021/03/26 04:42:44;;;;;;;21.02;8.93;;;;;;;5.60;49.38;101434.25;7930190;28;20060;-64
2021/03/26 04:46:46;;;;;;;13.93;8.63;;;;;;;5.57;49.31;101434.34;7932748;28;20517;-64
2021/03/26 04:50:59;;;;;;;21.83;9.02;;;;;;;5.55;49.54;101438.78;7930593;28;20033;-65
2021/03/26 04:55:14;;;;;;;19.70;8.57;;;;;;;5.54;49.67;101432.69;7940059;28;20413;-64
2021/03/26 04:59:25;;;;;;;13.35;8.88;;;;;;;5.52;49.80;101423.22;7925445;28;20030;-64
2021/03/26 05:03:31;;;;;;;15.20;9.23;;;;;;;5.52;49.78;101428.44;7943058;28;20066;-64
2021/03/26 05:07:35;;;;;;;14.23;8.73;;;;;;;5.48;50.12;101413.81;7940447;28;20026;-64
2021/03/26 05:11:32;;;;;;;18.20;9.68;;;;;;;5.50;49.98;101420.69;7932115;28;20030;-64
2021/03/26 05:15:28;;;;;;;14.70;8.30;;;;;;;5.52;50.07;101426.69;7932525;28;20030;-64
2021/03/26 05:19:32;;;;;;;14.93;8.57;;;;;;;5.52;49.99;101424.06;7932085;28;20099;-64
2021/03/26 05:23:35;;;;;;;15.93;9.88;;;;;;;5.51;50.17;101421.53;7931854;28;20049;-63
2021/03/26 05:28:04;;;;;;;13.57;7.95;;;;;;;5.48;50.23;101417.28;7881643;28;20046;-64
2021/03/26 05:32:17;;;;;;;16.48;9.55;;;;;;;5.50;50.47;101414.63;7928538;28;20380;-65
2021/03/26 05:37:00;;;;;;;14.88;9.05;;;;;;;5.49;50.35;101413.78;7936538;28;20072;-65
2021/03/26 05:41:20;;;;;;;16.60;9.18;;;;;;;5.51;50.40;101421.53;7933293;28;20034;-64
2021/03/26 05:45:35;;;;;;;13.40;8.82;;;;;;;5.53;50.44;101419.72;7930216;28;20117;-65
2021/03/26 05:50:08;;;;;;;13.02;8.65;;;;;;;5.54;50.57;101419.66;7930343;28;20030;-65
2021/03/26 05:54:18;;;;;;;15.57;9.23;;;;;;;5.57;50.64;101432.56;7952181;28;20495;-64
2021/03/26 05:59:08;;;;;;;17.60;8.82;;;;;;;5.60;50.38;101429.03;7928694;28;20103;-64
2021/03/26 06:03:26;;;;;;;13.47;8.37;;;;;;;5.65;50.32;101432.28;7920047;28;20030;-64
2021/03/26 06:07:54;;;;;;;16.85;9.30;;;;;;;5.71;50.70;101429.47;7925390;28;20041;-64
2021/03/26 06:12:25;;;;;;;16.95;9.50;;;;;;;5.76;50.66;101416.28;7927067;28;20108;-64
2021/03/26 06:16:43;;;;;;;18.52;9.35;;;;;;;5.83;50.76;101417.72;7910047;28;20132;-64
2021/03/26 06:21:18;;;;;;;14.50;9.20;;;;;;;5.92;51.24;101425.22;7929694;28;20037;-64
2021/03/26 06:25:52;;;;;;;14.93;8.57;;;;;;;6.07;50.73;101422.88;7934958;28;20030;-64
2021/03/26 06:29:52;;;;;;;14.95;9.13;;;;;;;6.27;51.15;101414.25;7930533;28;20169;-64
2021/03/26 06:33:46;;;;;;;17.88;10.10;;;;;;;6.48;51.30;101421.22;7927864;28;20046;-64
2021/03/26 06:37:58;;;;;;;16.17;9.98;;;;;;;6.78;51.28;101413.09;7927575;28;20479;-64
2021/03/26 06:42:07;;;;;;;18.27;10.35;;;;;;;7.25;51.55;101411.06;7931099;28;20050;-64
2021/03/26 06:46:35;;;;;;;17.48;10.82;;;;;;;7.95;51.82;101408.75;7931698;28;20132;-64
2021/03/26 06:51:04;;;;;;;16.90;10.15;;;;;;;8.89;52.12;101406.78;7934910;28;20041;-64
2021/03/26 06:55:04;;;;;;;14.52;9.65;;;;;;;9.92;52.09;101395.22;7921349;28;20038;-64
2021/03/26 06:59:19;;;;;;;17.80;10.68;;;;;;;10.96;52.04;101385.72;7921022;28;20073;-65
2021/03/26 07:03:42;;;;;;;13.68;10.02;;;;;;;11.90;51.33;101387.81;7926666;28;20065;-64
2021/03/26 07:07:54;;;;;;;14.38;9.63;;;;;;;12.80;50.65;101390.72;7930585;28;20034;-65
2021/03/26 07:12:04;;;;;;;16.52;10.18;;;;;;;13.63;49.73;101379.66;7925819;28;20586;-65
2021/03/26 07:15:58;;;;;;;17.38;10.45;;;;;;;14.33;49.04;101377.19;7928627;28;20050;-65
2021/03/26 07:20:12;;;;;;;15.15;10.48;;;;;;;14.98;48.62;101380.19;7924175;28;20034;-65
2021/03/26 07:24:21;;;;;;;15.35;10.27;;;;;;;15.70;47.85;101381.59;7930326;28;20050;-65
2021/03/26 07:28:37;;;;;;;16.65;10.00;;;;;;;16.50;46.89;101379.47;7923530;28;20053;-65
2021/03/26 07:32:41;;;;;;;20.80;12.32;;;;;;;17.23;45.96;101375.94;7926679;28;20038;-65
2021/03/26 07:36:53;;;;;;;18.33;10.75;;;;;;;17.97;45.89;101384.47;7927631;28;20044;-65
2021/03/26 07:41:04;;;;;;;18.92;10.38;;;;;;;18.69;44.98;101379.63;7926170;28;20113;-65
2021/03/26 07:45:04;;;;;;;16.70;11.10;;;;;;;19.34;43.95;101378.81;7927841;28;20482;-65
2021/03/26 07:49:19;;;;;;;21.15;11.40;;;;;;;20.00;43.25;101378.66;7930303;28;20042;-65
2021/03/26 07:53:46;;;;;;;16.05;11.27;;;;;;;20.70;42.94;101377.84;7931953;28;20034;-65
2021/03/26 07:58:14;;;;;;;15.15;10.73;;;;;;;21.38;42.11;101369.91;7933232;28;20037;-65
2021/03/26 08:02:40;;;;;;;14.57;11.05;;;;;;;22.00;41.64;101371.34;7924492;28;20035;-65
2021/03/26 08:07:04;;;;;;;16.85;11.32;;;;;;;22.62;40.26;101363.78;7913307;28;20039;-65
2021/03/26 08:11:12;;;;;;;18.77;10.77;;;;;;;23.24;39.18;101361.34;7939321;28;20037;-65
2021/03/26 08:15:23;;;;;;;15.70;10.63;;;;;;;23.82;38.14;101359.09;7927187;28;20038;-64
2021/03/26 08:19:38;;;;;;;12.63;9.65;;;;;;;24.47;37.42;101358.69;7933035;28;20584;-65
2021/03/26 08:23:45;;;;;;;16.52;10.73;;;;;;;25.18;36.56;101354.66;7934451;28;20042;-65
2021/03/26 08:28:14;;;;;;;13.95;9.95;;;;;;;25.86;36.78;101353.44;7931320;28;20049;-65
2021/03/26 08:32:11;;;;;;;14.88;10.05;;;;;;;26.40;34.81;101354.66;7931395;28;20042;-65
2021/03/26 08:36:37;;;;;;;12.70;9.85;;;;;;;26.83;34.54;101355.47;7931263;28;20039;-65
2021/03/26 08:40:46;;;;;;;13.45;9.98;;;;;;;27.24;33.56;101363.63;7921268;28;20042;-65
2021/03/26 08:44:37;;;;;;;12.35;9.30;;;;;;;27.59;33.91;101358.22;7932974;28;20486;-65
2021/03/26 08:48:58;;;;;;;13.88;9.50;;;;;;;27.94;32.60;101352.53;7937606;28;20059;-65
2021/03/26 08:52:59;;;;;;;15.57;9.40;;;;;;;28.30;31.89;101346.78;7948237;28;20034;-66
2021/03/26 08:57:26;;;;;;;10.48;8.40;;;;;;;28.60;31.62;101352.63;7934652;28;20057;-66
2021/03/26 09:01:34;;;;;;;12.13;8.32;;;;;;;28.72;31.22;101344.75;7942663;28;20100;-66
2021/03/26 09:05:51;;;;;;;13.43;8.88;;;;;;;28.74;31.11;101353.47;7933114;28;20026;-66
2021/03/26 09:09:58;;;;;;;13.70;8.77;;;;;;;28.88;31.07;101351.59;7934756;28;20773;-65
2021/03/26 09:14:11;;;;;;;9.68;6.97;;;;;;;28.96;30.38;101346.78;7931629;28;20508;-66
2021/03/26 09:18:20;;;;;;;9.65;6.60;;;;;;;28.91;30.43;101346.59;7939335;28;20045;-66
2021/03/26 09:22:37;;;;;;;8.93;6.85;;;;;;;29.12;29.41;101340.94;7928307;28;20042;-65
2021/03/26 09:26:53;;;;;;;7.40;5.40;;;;;;;29.34;29.48;101343.38;7931590;28;20076;-65
2021/03/26 09:30:56;;;;;;;11.73;5.65;;;;;;;29.42;28.49;101326.88;7930776;28;20052;-65
2021/03/26 09:35:09;;;;;;;7.53;5.05;;;;;;;28.78;29.14;101341.22;7938767;28;20462;-65
2021/03/26 09:39:09;;;;;;;8.32;5.18;;;;;;;27.68;28.94;101332.72;7924778;28;20034;-65
2021/03/26 09:43:11;;;;;;;9.68;5.35;;;;;;;26.51;29.20;101329.06;7939446;28;20540;-65
2021/03/26 09:47:11;;;;;;;6.75;4.68;;;;;;;25.54;29.14;101327.84;7924717;28;20154;-65
2021/03/26 09:51:20;;;;;;;7.28;4.70;;;;;;;24.60;29.91;101334.72;7925938;28;20049;-65
2021/03/26 09:55:33;;;;;;;12.68;4.13;;;;;;;23.68;29.49;101324.94;7938623;28;20500;-65
2021/03/26 09:59:28;;;;;;;5.03;3.40;;;;;;;22.73;29.65;101317.88;7931378;28;20443;-64
2021/03/26 10:03:47;;;;;;;9.55;3.78;;;;;;;21.85;30.24;101324.00;7931258;28;20046;-64
2021/03/26 10:07:50;;;;;;;15.10;4.15;;;;;;;21.17;30.27;101311.50;7933605;28;20038;-65
2021/03/26 10:11:40;;;;;;;11.57;3.97;;;;;;;20.73;30.70;101315.25;7929929;28;20106;-65
2021/03/26 10:15:39;;;;;;;7.93;4.25;;;;;;;20.38;30.88;101318.81;7929614;28;20393;-65
2021/03/26 10:19:36;;;;;;;7.35;3.40;;;;;;;20.14;31.08;101310.59;7929298;28;20037;-65
2021/03/26 10:23:34;;;;;;;5.00;3.20;;;;;;;19.86;31.27;101308.97;7932196;28;20041;-65
2021/03/26 10:27:49;;;;;;;7.35;3.55;;;;;;;19.56;31.33;101305.63;7919574;28;20033;-65
2021/03/26 10:31:43;;;;;;;7.32;3.80;;;;;;;19.34;31.79;101295.41;7931528;28;20530;-65
2021/03/26 10:35:36;;;;;;;6.53;3.40;;;;;;;19.17;31.66;101293.50;7909748;28;20038;-65
2021/03/26 10:39:32;;;;;;;4.70;3.20;;;;;;;18.99;31.84;101276.59;7911014;28;20045;-65
2021/03/26 10:43:43;;;;;;;8.35;4.03;;;;;;;18.78;31.86;101274.97;7906378;28;20112;-65
2021/03/26 10:47:39;;;;;;;6.55;3.30;;;;;;;18.56;32.26;101267.34;7905027;28;20044;-66
2021/03/26 10:51:51;;;;;;;4.07;2.88;;;;;;;18.42;32.08;101257.97;7922607;28;20510;-65
2021/03/26 10:55:51;;;;;;;11.10;3.72;;;;;;;18.30;32.31;101256.44;7914971;28;20210;-65
2021/03/26 10:59:53;;;;;;;5.10;2.65;;;;;;;18.18;32.35;101254.06;7911633;28;20041;-65
2021/03/26 11:04:02;;;;;;;9.27;3.40;;;;;;;18.05;32.36;101248.19;7907142;28;20133;-64
2021/03/26 11:07:59;;;;;;;4.88;2.88;;;;;;;18.05;32.55;101237.56;7913105;28;20069;-65
2021/03/26 11:12:12;;;;;;;6.60;3.28;;;;;;;18.04;32.40;101222.59;7918537;28;20101;-64
2021/03/26 11:16:12;;;;;;;4.25;2.35;;;;;;;18.07;32.33;101225.81;7913829;28;20065;-65
2021/03/26 11:20:29;;;;;;;7.70;2.75;;;;;;;18.11;32.51;101211.25;7905397;28;20064;-65
2021/03/26 11:24:20;;;;;;;5.43;2.88;;;;;;;18.16;32.81;101206.34;7900416;28;20038;-65
2021/03/26 11:28:32;;;;;;;8.00;2.90;;;;;;;18.21;32.73;101198.78;7908262;28;21220;-66
2021/03/26 11:32:26;;;;;;;7.72;2.45;;;;;;;18.29;32.77;101198.06;7908185;28;20070;-65
2021/03/26 11:36:22;;;;;;;5.38;2.85;;;;;;;18.40;32.86;101182.78;7907159;28;20574;-65
2021/03/26 11:40:30;;;;;;;5.20;2.65;;;;;;;18.47;32.53;101188.41;7917270;28;20054;-65
2021/03/26 11:44:28;;;;;;;6.90;2.38;;;;;;;18.53;32.50;101185.16;7904758;28;20037;-65
2021/03/26 11:48:27;;;;;;;7.10;2.80;;;;;;;18.55;32.35;101177.03;7917415;28;20050;-65
2021/03/26 11:52:18;;;;;;;6.75;2.47;;;;;;;18.53;32.55;101168.34;7909489;28;20602;-65
2021/03/26 11:56:18;;;;;;;3.30;2.30;;;;;;;18.51;32.75;101165.84;7910170;28;20541;-64
2021/03/26 12:00:29;;;;;;;5.70;2.60;;;;;;;18.47;32.78;101167.13;7913173;28;20045;-65
2021/03/26 12:04:29;;;;;;;4.18;2.28;;;;;;;18.47;32.86;101156.47;7905543;28;20590;-65
2021/03/26 12:08:32;;;;;;;6.55;2.80;;;;;;;18.49;32.55;101148.34;7910844;28;20803;-65
2021/03/26 12:12:33;;;;;;;5.03;2.42;;;;;;;18.49;32.76;101132.38;7911917;28;20172;-65
2021/03/26 12:16:50;;;;;;;3.33;2.20;;;;;;;18.38;32.73;101136.88;7906795;28;20041;-65
2021/03/26 12:20:42;;;;;;;4.55;2.33;;;;;;;18.33;32.25;101132.97;7919570;28;20035;-65
2021/03/26 12:24:43;;;;;;;3.13;2.28;;;;;;;18.31;32.21;101121.66;7910300;28;20041;-66
2021/03/26 12:28:42;;;;;;;6.47;2.40;;;;;;;18.30;32.27;101119.97;7908495;28;20516;-65
2021/03/26 12:32:35;;;;;;;6.57;2.05;;;;;;;18.30;32.78;101118.16;7912865;28;20117;-66
2021/03/26 12:36:32;;;;;;;3.58;2.00;;;;;;;18.26;32.58;101110.59;7909276;28;20057;-64
2021/03/26 12:40:28;;;;;;;5.53;3.07;;;;;;;18.14;32.50;101101.97;7906820;28;20037;-65
2021/03/26 12:44:22;;;;;;;2.72;2.15;;;;;;;18.08;32.84;101099.88;7902861;28;20038;-64
2021/03/26 12:48:18;;;;;;;2.60;1.70;;;;;;;18.02;32.42;101096.97;7916156;28;20081;-65
2021/03/26 12:52:36;;;;;;;2.97;1.63;;;;;;;17.99;32.85;101098.09;7903167;28;20038;-65
2021/03/26 12:56:45;;;;;;;3.67;1.52;;;;;;;17.91;32.57;101090.00;7911571;28;20042;-65
2021/03/26 13:00:42;;;;;;;4.35;1.65;;;;;;;17.87;32.71;101073.50;7910997;28;20046;-65
2021/03/26 13:04:49;;;;;;;4.77;2.57;;;;;;;17.78;32.50;101073.50;7906385;28;20026;-65
2021/03/26 13:08:46;;;;;;;3.65;1.60;;;;;;;17.73;32.52;101075.78;7928555;28;20115;-65
2021/03/26 13:12:40;;;;;;;3.10;1.70;;;;;;;17.71;32.76;101064.44;7911714;28;20128;-64
2021/03/26 13:16:30;;;;;;;2.65;1.60;;;;;;;17.68;32.69;101060.22;7915043;28;20046;-65
2021/03/26 13:20:22;;;;;;;2.60;1.40;;;;;;;17.60;32.51;101059.28;7910966;28;20053;-65
2021/03/26 13:24:24;;;;;;;3.83;1.50;;;;;;;17.55;32.39;101049.91;7916295;28;20038;-65
2021/03/26 13:28:30;;;;;;;3.63;1.67;;;;;;;17.50;32.48;101043.34;7912427;28;20045;-65
2021/03/26 13:32:23;;;;;;;2.80;1.63;;;;;;;17.40;32.70;101043.34;7907721;28;20126;-64
2021/03/26 13:36:23;;;;;;;1.88;1.30;;;;;;;17.33;32.56;101034.25;7914161;28;20492;-65
2021/03/26 13:40:21;;;;;;;2.65;1.50;;;;;;;17.31;32.67;101028.28;7916698;28;20046;-65
2021/03/26 13:44:18;;;;;;;4.28;1.65;;;;;;;17.27;32.47;101021.56;7912507;28;20038;-65
2021/03/26 13:48:15;;;;;;;1.95;1.23;;;;;;;17.25;32.52;101018.19;7914495;28;20458;-65
2021/03/26 13:52:18;;;;;;;2.37;1.53;;;;;;;17.20;32.31;101017.78;7913692;28;20037;-65
2021/03/26 13:56:17;;;;;;;2.28;1.63;;;;;;;17.15;32.39;101013.91;7915763;28;21316;-66
2021/03/26 14:00:21;;;;;;;3.65;1.58;;;;;;;17.07;32.43;101019.91;7914858;28;20044;-67
2021/03/26 14:04:29;;;;;;;2.20;1.38;;;;;;;17.01;32.64;101005.38;7903486;28;20558;-66
2021/03/26 14:08:37;;;;;;;3.20;1.45;;;;;;;16.97;32.75;101008.44;7913984;28;20041;-64
2021/03/26 14:12:40;;;;;;;4.57;1.83;;;;;;;16.92;32.71;101000.06;7911790;28;20041;-65
2021/03/26 14:16:53;;;;;;;1.88;1.42;;;;;;;16.80;32.44;100994.00;7918502;28;20042;-65
2021/03/26 14:20:50;;;;;;;3.85;1.60;;;;;;;16.75;32.62;100976.81;7910094;28;20030;-65
2021/03/26 14:25:01;;;;;;;2.83;1.67;;;;;;;16.74;32.65;100983.13;7909286;28;20034;-64
2021/03/26 14:29:05;;;;;;;4.07;1.83;;;;;;;16.71;32.66;100972.78;7927380;28;20066;-65
2021/03/26 14:32:58;;;;;;;2.58;1.20;;;;;;;16.68;32.72;100975.72;7910154;28;20114;-65
2021/03/26 14:36:56;;;;;;;1.90;1.25;;;;;;;16.66;32.52;100967.88;7904457;28;20045;-65
2021/03/26 14:41:04;;;;;;;3.35;1.67;;;;;;;16.59;32.51;100966.75;7910182;28;20046;-65
2021/03/26 14:44:58;;;;;;;8.88;1.77;;;;;;;16.52;32.71;100958.53;7911101;28;20030;-65
2021/03/26 14:48:51;;;;;;;1.90;1.35;;;;;;;16.51;32.65;100953.34;7909614;28;20796;-65
2021/03/26 14:52:55;;;;;;;6.40;1.65;;;;;;;16.56;32.53;100948.47;7912250;28;20049;-65
2021/03/26 14:57:09;;;;;;;4.28;1.80;;;;;;;16.58;32.66;100962.44;7904790;28;20038;-65
2021/03/26 15:01:28;;;;;;;4.18;1.52;;;;;;;16.58;32.73;100952.66;7910885;28;20041;-65
2021/03/26 15:05:26;;;;;;;2.10;1.48;;;;;;;16.57;32.67;100956.31;7910964;28;20026;-65
2021/03/26 15:09:19;;;;;;;;;;;;;;;16.40;33.11;100953.50;7903823;28;20033;-64
2021/03/26 15:13:29;;;;;;;2.72;1.48;;;;;;;16.41;32.77;100952.53;7905686;28;20436;-64
2021/03/26 15:17:46;;;;;;;2.13;1.65;;;;;;;16.33;32.96;100939.09;7906504;28;20081;-64
2021/03/26 15:21:37;;;;;;;3.80;1.77;;;;;;;16.34;33.02;100933.66;7908879;28;20029;-64
2021/03/26 15:25:42;;;;;;;2.10;1.33;;;;;;;16.33;32.95;100928.47;7906147;28;20058;-64
2021/03/26 15:29:50;;;;;;;3.60;1.50;;;;;;;16.26;32.91;100930.00;7910030;28;20050;-65
2021/03/26 15:34:17;;;;;;;6.80;2.20;;;;;;;16.12;32.93;100923.28;7918824;28;20034;-64
2021/03/26 15:38:25;;;;;;;2.75;1.40;;;;;;;16.04;32.97;100923.09;7920648;28;20046;-64
2021/03/26 15:42:29;;;;;;;3.17;1.42;;;;;;;16.01;33.21;100918.06;7928607;28;20053;-65
2021/03/26 15:46:40;;;;;;;3.63;1.73;;;;;;;15.96;32.91;100909.66;7905957;28;20449;-64
2021/03/26 15:50:34;;;;;;;2.10;1.25;;;;;;;15.92;33.03;100918.88;7918325;28;20046;-65
2021/03/26 15:54:54;;;;;;;1.55;1.25;;;;;;;15.83;33.04;100911.75;7911387;28;20038;-65
2021/03/26 15:59:09;;;;;;;2.22;1.40;;;;;;;15.77;33.13;100910.47;7914133;28;20061;-65
2021/03/26 16:03:21;;;;;;;1.52;1.10;;;;;;;15.71;33.08;100917.13;7914851;28;20045;-64
2021/03/26 16:07:47;;;;;;;2.75;0.88;;;;;;;15.66;33.04;100908.72;7921422;28;20107;-65
2021/03/26 16:12:15;;;;;;;2.35;1.17;;;;;;;15.56;33.13;100905.22;7860693;28;20042;-65
2021/03/26 16:16:17;;;;;;;3.72;1.98;;;;;;;15.50;33.17;100896.97;7911000;28;20099;-65
2021/03/26 16:20:34;;;;;;;2.33;1.45;;;;;;;15.45;33.24;100902.66;7907951;28;20070;-64
2021/03/26 16:25:07;;;;;;;2.22;1.02;;;;;;;15.41;33.18;100893.31;7904605;28;20030;-65
2021/03/26 16:29:11;;;;;;;5.38;1.45;;;;;;;15.47;33.11;100900.72;7912914;28;20042;-65
2021/03/26 16:33:19;;;;;;;2.03;1.05;;;;;;;15.51;33.25;100890.69;7910859;28;20133;-65
2021/03/26 16:37:19;;;;;;;2.13;1.30;;;;;;;15.53;33.22;100899.34;7936961;28;20049;-65
2021/03/26 16:41:40;;;;;;;2.13;1.00;;;;;;;15.50;33.32;100903.09;7930545;28;20837;-64
2021/03/26 16:45:55;;;;;;;2.60;1.40;;;;;;;15.45;33.50;100900.03;7911752;28;20069;-64
2021/03/26 16:50:23;;;;;;;1.98;1.10;;;;;;;15.42;33.46;100899.41;7918146;28;20046;-65
2021/03/26 16:54:32;;;;;;;4.18;1.50;;;;;;;15.38;33.41;100895.34;7910783;28;20050;-64
2021/03/26 16:58:44;;;;;;;2.60;1.17;;;;;;;15.30;33.53;100900.47;7913168;28;20046;-65
2021/03/26 17:03:13;;;;;;;5.65;1.13;;;;;;;15.23;33.60;100900.13;7914800;28;20096;-65
2021/03/26 17:07:20;;;;;;;3.10;1.53;;;;;;;15.20;33.61;100895.13;7914713;28;20449;-64
2021/03/26 17:11:29;;;;;;;2.50;1.58;;;;;;;15.12;33.78;100895.75;7914929;28;20060;-65
2021/03/26 17:15:37;;;;;;;3.75;2.00;;;;;;;15.11;33.60;100896.72;7927858;28;20042;-65
2021/03/26 17:20:05;;;;;;;3.33;1.80;;;;;;;15.04;33.72;100892.09;7918964;28;20531;-65
2021/03/26 17:24:14;;;;;;;5.57;2.20;;;;;;;14.95;33.40;100890.22;7916043;28;20045;-65
2021/03/26 17:28:29;;;;;;;3.35;1.80;;;;;;;14.85;33.56;100887.50;7914372;28;20468;-64
2021/03/26 17:32:51;;;;;;;6.15;1.83;;;;;;;14.77;33.69;100897.88;7915858;28;20034;-65
2021/03/26 17:37:05;;;;;;;3.65;1.90;;;;;;;14.69;33.48;100901.16;7913973;28;20049;-66
2021/03/26 17:41:10;;;;;;;4.85;1.73;;;;;;;14.62;33.66;100899.16;7919635;28;20065;-66
2021/03/26 17:45:33;;;;;;;3.70;1.85;;;;;;;14.55;33.41;100900.59;7915628;28;20042;-68
2021/03/26 17:49:54;;;;;;;5.93;2.20;;;;;;;14.42;33.69;100897.28;7895951;28;20593;-67
2021/03/26 17:54:11;;;;;;;4.45;2.00;;;;;;;14.31;33.54;100917.47;7921359;28;20046;-67
2021/03/26 17:58:07;;;;;;;2.55;1.92;;;;;;;14.26;33.71;100909.06;7913695;28;20053;-67
2021/03/26 18:02:07;;;;;;;3.47;1.95;;;;;;;14.18;33.78;100906.22;7910816;28;20077;-66
2021/03/26 18:06:35;;;;;;;3.88;2.60;;;;;;;14.13;33.99;100910.22;7911557;28;20045;-66
2021/03/26 18:11:23;;;;;;;6.67;2.73;;;;;;;14.05;33.94;100908.16;7914105;28;20053;-66
2021/03/26 18:15:38;;;;;;;3.50;2.40;;;;;;;13.97;34.01;100905.28;7856391;28;20830;-66
2021/03/26 18:19:47;;;;;;;5.05;2.50;;;;;;;13.94;33.99;100899.41;7887216;28;20056;-66
2021/03/26 18:23:50;;;;;;;5.50;3.00;;;;;;;13.92;34.00;100909.28;7908318;28;20489;-65
2021/03/26 18:28:26;;;;;;;4.57;2.75;;;;;;;13.84;34.33;100902.78;7917098;28;20099;-65
2021/03/26 18:32:28;;;;;;;4.00;2.35;;;;;;;13.79;34.49;100902.31;7908045;28;20030;-66
2021/03/26 18:36:32;;;;;;;4.25;2.47;;;;;;;13.72;34.49;100905.53;7911234;28;20038;-67
2021/03/26 18:40:35;;;;;;;4.43;2.28;;;;;;;13.66;34.57;100906.88;7912952;28;20092;-65
2021/03/26 18:44:45;;;;;;;10.25;2.88;;;;;;;13.65;34.64;100920.19;7912212;28;20037;-65
2021/03/26 18:49:14;;;;;;;4.47;2.33;;;;;;;13.60;34.78;100915.28;7910788;28;20880;-64
2021/03/26 18:53:23;;;;;;;4.40;2.10;;;;;;;13.53;34.67;100908.81;7915998;28;21273;-66
2021/03/26 18:57:16;;;;;;;4.70;2.90;;;;;;;13.50;34.95;100911.66;7906660;28;20472;-67
2021/03/26 19:01:34;;;;;;;2.70;1.65;;;;;;;13.49;34.86;100912.59;7911799;28;20403;-65
2021/03/26 19:05:36;;;;;;;4.70;2.63;;;;;;;13.43;35.18;100905.16;7910810;28;20498;-65